Vremea acum in Cugir - Romania

Vrei sa afli care e starea vremii acum in Arad - Romania? Dorim sa iti furnizam starea vremii pentru Arad - Romania. Starea vremii Arad - Romania pentru astazi.

Vremea acum in Cugir

Temperatura: 21 °C

Se simte ca: 21 °C
Innorat: 0 %
Precipitatii: 0 %
Presiune atmosferica: 1024 hPa
Umiditate: 31%
Vizibilitate: 10 km
Vantul bate din NE cu 0 km/h

Evolutia vremii in Cugir pe ore

Ora: 14:00
Parțial noros
Temperatura: 22.5°C
Sansa de precipitatii: 0%
Ora Descriere Temp Se simte Precipitatii Umiditate Vant
00:00Senin9.3°9.3°0%45%WNW 1.4 KM/H
01:00Senin8.9°8.9°0%45%NW 1.8 KM/H
02:00Senin8.5°8.5°0%46%NW 1.8 KM/H
03:00Parțial noros7.8°7.8°0%46%NNW 1.8 KM/H
04:00Senin7.1°7.1°0%47%NNW 2.2 KM/H
05:00Parțial noros6.4°6.4°0%47%N 2.2 KM/H
06:00Parțial noros7.4°7.5°0%45%WSW 2.5 KM/H
07:00Parțial noros8.5°8.7°0%44%ESE 2.9 KM/H
08:00Parțial noros9.5°9.8°0%42%N 3.2 KM/H
09:00Parțial noros12.8°13°0%36%NNE 4.7 KM/H
10:00Parțial noros16°16.1°0%30%NNE 6.1 KM/H
11:00Parțial noros19.3°19.3°0%24%NE 7.6 KM/H
12:00Parțial noros20.4°20.4°0%23%NE 7.9 KM/H
13:00Parțial noros21.4°21.4°0%21%NE 7.9 KM/H
14:00Parțial noros22.5°22.3°0%20%NE 8.3 KM/H
15:00Parțial noros20.2°20.2°0%23%NE 7.9 KM/H
16:00Parțial noros18°18°0%26%NE 7.2 KM/H
17:00Parțial noros15.7°15.7°0%30%NE 6.8 KM/H
18:00Parțial noros14.1°14.1°0%33%ESE 5 KM/H
19:00Parțial noros12.6°12.6°0%36%SSW 3.6 KM/H
20:00Parțial noros11°11°0%39%W 1.8 KM/H
21:00Parțial noros10.6°10.6°0%40%WNW 1.8 KM/H
22:00Parțial noros10.2°10.2°0%41%NW 2.2 KM/H
23:00Parțial noros9.8°9.8°0%41%NW 2.2 KM/H